Time;durP1;ratioP1;P1;durP2;ratioP2;P2;SDS_P1;SDS_P2;PMS_P1;PMS_P2;Temp;Humidity;BMP_temperature;BMP_pressure;BME280_temperature;BME280_humidity;BME280_pressure;Samples;Min_cycle;Max_cycle;Signal;HPM_P1;HPM_P2
2023/08/09 00:00:32;;;;;;;3.55;3.25;;;;;;;13.01;100.00;101081.13;1005192;29;20041;-86
2023/08/09 00:01:03;;;;;;;4.47;3.70;;;;;;;12.99;100.00;101086.69;1013058;29;20119;-87
2023/08/09 00:01:35;;;;;;;4.63;3.75;;;;;;;13.17;100.00;101085.88;1010497;29;20048;-86
2023/08/09 00:02:13;;;;;;;3.47;3.13;;;;;;;13.20;100.00;101081.94;1003573;29;20056;-86
2023/08/09 00:02:45;;;;;;;3.70;3.30;;;;;;;13.20;100.00;101080.06;1000421;29;20058;-86
2023/08/09 00:03:17;;;;;;;4.35;3.72;;;;;;;13.11;100.00;101086.72;1007564;29;20110;-86
2023/08/09 00:03:49;;;;;;;3.90;3.58;;;;;;;13.00;100.00;101079.50;1006789;29;20408;-87
2023/08/09 00:04:21;;;;;;;3.70;3.15;;;;;;;12.88;100.00;101083.97;1006904;29;20128;-87
2023/08/09 00:04:53;;;;;;;10.23;3.42;;;;;;;12.85;100.00;101081.72;1004251;29;20050;-87
2023/08/09 00:05:24;;;;;;;7.32;2.90;;;;;;;12.75;100.00;101073.44;1008249;29;20052;-87
2023/08/09 00:05:56;;;;;;;4.78;3.72;;;;;;;12.74;100.00;101079.81;1008013;29;20049;-87
2023/08/09 00:06:27;;;;;;;9.70;3.38;;;;;;;12.94;100.00;101083.06;1000374;29;20556;-87
2023/08/09 00:06:59;;;;;;;4.43;3.42;;;;;;;12.89;100.00;101082.94;1001690;29;20110;-86
2023/08/09 00:07:31;;;;;;;4.47;3.17;;;;;;;12.96;100.00;101078.31;1004082;29;20049;-87
2023/08/09 00:08:03;;;;;;;3.90;3.50;;;;;;;13.05;100.00;101082.28;1000236;29;20046;-86
2023/08/09 00:08:35;;;;;;;5.20;3.70;;;;;;;12.96;100.00;101083.66;1004795;29;20064;-87
2023/08/09 00:09:06;;;;;;;4.85;3.90;;;;;;;13.08;100.00;101081.84;1007799;29;20045;-86
2023/08/09 00:09:39;;;;;;;5.15;3.72;;;;;;;13.09;100.00;101088.81;1003187;29;20041;-87
2023/08/09 00:10:10;;;;;;;3.53;3.25;;;;;;;13.20;100.00;101096.13;1000949;29;20045;-86
2023/08/09 00:10:42;;;;;;;5.05;2.97;;;;;;;13.06;100.00;101083.94;1000918;29;20046;-86
2023/08/09 00:11:14;;;;;;;4.43;3.83;;;;;;;13.02;100.00;101088.09;1000458;29;20046;-86
2023/08/09 00:11:45;;;;;;;3.47;3.17;;;;;;;13.11;100.00;101083.25;1008090;29;20041;-87
2023/08/09 00:12:17;;;;;;;4.18;3.78;;;;;;;12.94;100.00;101088.41;1003222;29;20086;-86
2023/08/09 00:12:49;;;;;;;3.55;3.28;;;;;;;12.97;100.00;101091.47;1008051;29;20052;-86
2023/08/09 00:13:20;;;;;;;6.13;3.67;;;;;;;13.09;100.00;101088.00;1004247;29;20420;-86
2023/08/09 00:13:52;;;;;;;5.30;3.55;;;;;;;12.91;100.00;101088.88;1006048;29;20053;-86
2023/08/09 00:14:23;;;;;;;4.05;3.65;;;;;;;12.69;100.00;101091.19;1012065;29;20499;-86
2023/08/09 00:14:55;;;;;;;4.13;3.67;;;;;;;12.68;100.00;101087.72;1007860;29;20045;-86
2023/08/09 00:15:26;;;;;;;3.75;3.25;;;;;;;12.54;100.00;101085.41;1008237;29;20424;-86
2023/08/09 00:15:58;;;;;;;4.05;3.65;;;;;;;12.54;100.00;101088.88;1011794;29;20052;-86
2023/08/09 00:16:30;;;;;;;4.60;3.50;;;;;;;12.53;100.00;101089.09;1003974;29;20513;-87
2023/08/09 00:17:02;;;;;;;4.18;3.78;;;;;;;12.74;100.00;101085.16;1000251;29;20133;-86
2023/08/09 00:17:34;;;;;;;3.60;3.28;;;;;;;12.74;100.00;101085.16;1007950;29;20045;-87
2023/08/09 00:18:05;;;;;;;4.07;3.63;;;;;;;12.84;100.00;101086.25;1007685;29;20598;-86
2023/08/09 00:18:37;;;;;;;5.43;3.60;;;;;;;12.96;100.00;101089.00;1008281;29;20140;-86
2023/08/09 00:19:09;;;;;;;4.28;3.90;;;;;;;12.94;100.00;101089.22;999585;29;20042;-87
2023/08/09 00:19:41;;;;;;;4.07;3.72;;;;;;;12.87;100.00;101085.00;1003624;29;21054;-87
2023/08/09 00:20:13;;;;;;;4.15;3.55;;;;;;;12.94;100.00;101085.75;1004350;29;21663;-86
2023/08/09 00:20:44;;;;;;;4.60;3.55;;;;;;;12.91;100.00;101094.22;1004181;29;20053;-86
2023/08/09 00:21:16;;;;;;;5.60;3.70;;;;;;;13.08;100.00;101081.84;1004138;29;20048;-86
2023/08/09 00:21:47;;;;;;;4.68;4.20;;;;;;;12.96;100.00;101086.34;1004136;29;20042;-86
2023/08/09 00:22:19;;;;;;;3.80;3.33;;;;;;;13.11;100.00;101088.59;998651;29;20093;-86
2023/08/09 00:22:51;;;;;;;4.25;3.15;;;;;;;13.20;100.00;101085.41;1008142;29;20508;-87
2023/08/09 00:23:23;;;;;;;3.65;3.35;;;;;;;13.25;100.00;101084.75;1005936;29;20048;-86
2023/08/09 00:23:55;;;;;;;4.85;3.88;;;;;;;13.33;100.00;101094.28;1008131;29;20064;-86
2023/08/09 00:24:27;;;;;;;4.68;3.65;;;;;;;13.20;100.00;101085.41;1012204;29;20419;-87
2023/08/09 00:24:58;;;;;;;4.00;3.60;;;;;;;13.27;100.00;101091.47;1009347;29;20178;-87
2023/08/09 00:25:30;;;;;;;6.85;4.25;;;;;;;13.16;100.00;101094.91;1010478;29;20037;-86
2023/08/09 00:26:01;;;;;;;4.35;3.92;;;;;;;13.12;100.00;101090.22;1012094;29;20036;-87
2023/08/09 00:26:33;;;;;;;4.82;4.38;;;;;;;13.11;100.00;101086.72;1007573;29;20052;-86
2023/08/09 00:27:05;;;;;;;4.38;3.97;;;;;;;13.07;100.00;101090.09;1004231;29;20197;-86
2023/08/09 00:27:37;;;;;;;3.92;3.55;;;;;;;13.05;100.00;101097.53;1000378;29;20521;-86
2023/08/09 00:28:09;;;;;;;4.03;3.67;;;;;;;13.03;100.00;101100.44;1003963;29;20049;-86
2023/08/09 00:28:41;;;;;;;4.07;3.60;;;;;;;13.03;100.00;101094.25;1007047;29;20147;-86
2023/08/09 00:29:13;;;;;;;5.13;3.60;;;;;;;12.97;100.00;101096.00;1003965;29;20041;-87
2023/08/09 00:29:44;;;;;;;3.72;3.35;;;;;;;12.94;100.00;101091.09;998866;29;20054;-87
2023/08/09 00:30:17;;;;;;;4.32;3.67;;;;;;;13.00;100.00;101100.88;1003342;29;20041;-86
2023/08/09 00:30:49;;;;;;;4.18;3.78;;;;;;;12.97;100.00;101091.47;1006531;29;20046;-87
2023/08/09 00:31:21;;;;;;;3.90;3.60;;;;;;;12.86;100.00;101088.72;1004138;29;20038;-87
2023/08/09 00:31:52;;;;;;;3.67;3.10;;;;;;;12.92;100.00;101098.53;999919;29;20548;-87
2023/08/09 00:32:24;;;;;;;4.35;3.90;;;;;;;12.98;100.00;101097.63;1000225;29;20085;-87
2023/08/09 00:32:56;;;;;;;3.67;3.38;;;;;;;12.94;100.00;101091.09;1003535;29;20045;-87
2023/08/09 00:33:28;;;;;;;3.35;3.05;;;;;;;12.90;100.00;101101.44;1003807;29;20050;-87
2023/08/09 00:33:59;;;;;;;3.67;3.38;;;;;;;12.94;100.00;101097.25;1004553;29;20069;-86
2023/08/09 00:34:31;;;;;;;4.32;3.80;;;;;;;12.86;100.00;101094.06;1004073;29;20046;-87
2023/08/09 00:35:04;;;;;;;4.30;3.58;;;;;;;12.77;100.00;101100.75;1003910;29;20042;-86
2023/08/09 00:35:36;;;;;;;4.03;3.53;;;;;;;12.83;100.00;101094.50;1004032;29;20057;-87
2023/08/09 00:36:08;;;;;;;5.72;3.83;;;;;;;12.79;100.00;101098.66;1000150;29;20048;-87
2023/08/09 00:36:40;;;;;;;4.15;3.72;;;;;;;12.79;100.00;101087.97;1000607;29;20050;-87
2023/08/09 00:37:13;;;;;;;3.22;2.92;;;;;;;12.74;100.00;101096.69;1004594;29;20053;-87
2023/08/09 00:37:44;;;;;;;4.63;3.80;;;;;;;12.78;100.00;101091.69;1007364;29;20087;-86
2023/08/09 00:38:16;;;;;;;5.13;3.72;;;;;;;12.81;100.00;101097.41;1010076;29;20063;-87
2023/08/09 00:38:47;;;;;;;3.70;3.35;;;;;;;12.79;100.00;101099.50;1015098;29;20044;-87
2023/08/09 00:39:19;;;;;;;3.53;3.20;;;;;;;12.84;100.00;101098.81;1007993;29;20133;-86
2023/08/09 00:39:51;;;;;;;4.53;3.40;;;;;;;12.77;100.00;101100.75;1004278;29;20191;-87
2023/08/09 00:40:22;;;;;;;4.28;3.63;;;;;;;12.80;100.00;101089.63;1007887;29;20044;-86
2023/08/09 00:40:54;;;;;;;4.50;3.30;;;;;;;12.78;100.00;101099.72;1008095;29;20053;-87
2023/08/09 00:41:26;;;;;;;4.28;3.90;;;;;;;12.81;100.00;101091.25;1002774;29;20497;-87
2023/08/09 00:41:57;;;;;;;3.90;3.50;;;;;;;12.74;100.00;101098.53;1003803;29;20049;-86
2023/08/09 00:42:29;;;;;;;4.15;3.83;;;;;;;12.62;100.00;101093.94;1007866;29;20052;-87
2023/08/09 00:43:01;;;;;;;4.07;3.72;;;;;;;12.62;100.00;101088.59;1001852;29;20326;-87
2023/08/09 00:43:33;;;;;;;4.18;3.75;;;;;;;12.60;100.00;101089.84;1002098;29;20049;-86
2023/08/09 00:44:06;;;;;;;19.02;3.65;;;;;;;12.40;100.00;101098.09;1003924;29;20417;-86
2023/08/09 00:44:38;;;;;;;12.70;3.35;;;;;;;12.36;100.00;101094.25;1000233;29;20107;-86
2023/08/09 00:45:10;;;;;;;4.38;2.75;;;;;;;12.33;100.00;101094.69;1004062;29;20050;-87
2023/08/09 00:45:42;;;;;;;71.30;5.30;;;;;;;12.24;100.00;101087.97;1007242;29;20053;-86
2023/08/09 00:46:14;;;;;;;3.53;2.97;;;;;;;12.44;100.00;101090.44;1003954;29;20045;-86
2023/08/09 00:46:46;;;;;;;5.15;3.80;;;;;;;12.46;100.00;101083.84;1004983;29;20056;-86
2023/08/09 00:47:19;;;;;;;6.40;3.15;;;;;;;12.47;100.00;101090.81;1000240;29;20046;-86
2023/08/09 00:47:52;;;;;;;4.95;3.70;;;;;;;12.46;100.00;101088.38;1005435;29;20540;-86
2023/08/09 00:48:23;;;;;;;3.83;3.45;;;;;;;12.45;100.00;101087.56;1003888;29;20049;-86
2023/08/09 00:48:55;;;;;;;7.75;3.00;;;;;;;12.42;100.00;101096.03;1004045;29;20046;-87
2023/08/09 00:49:27;;;;;;;2.70;2.50;;;;;;;12.42;100.00;101088.00;1001345;29;20049;-86
2023/08/09 00:49:58;;;;;;;29.55;3.97;;;;;;;12.24;100.00;101091.47;1003526;29;20098;-87
2023/08/09 00:50:30;;;;;;;4.78;3.20;;;;;;;12.31;100.00;101094.88;1002325;29;20042;-86
2023/08/09 00:51:02;;;;;;;3.13;2.83;;;;;;;12.29;100.00;101099.63;1004220;29;20041;-86
2023/08/09 00:51:35;;;;;;;3.58;2.92;;;;;;;12.28;100.00;101097.19;999841;29;20038;-87
2023/08/09 00:52:07;;;;;;;3.55;3.22;;;;;;;12.27;100.00;101095.53;1004745;29;20056;-86
2023/08/09 00:52:39;;;;;;;5.65;2.25;;;;;;;12.28;100.00;101097.19;996892;29;20050;-87
2023/08/09 00:53:11;;;;;;;8.93;3.10;;;;;;;12.23;100.00;101095.19;1003964;29;20503;-86
2023/08/09 00:53:43;;;;;;;9.50;3.40;;;;;;;12.16;100.00;101099.78;1000204;29;20053;-87
2023/08/09 00:54:14;;;;;;;3.40;2.70;;;;;;;12.25;100.00;101102.97;1004210;29;20053;-87
2023/08/09 00:54:48;;;;;;;49.15;4.88;;;;;;;12.05;100.00;101095.97;999596;29;20054;-86
2023/08/09 00:55:19;;;;;;;4.43;2.70;;;;;;;11.96;100.00;101097.28;1007099;29;20049;-87
2023/08/09 00:55:51;;;;;;;4.47;3.30;;;;;;;11.93;100.00;101108.41;1007482;29;20147;-86
2023/08/09 00:56:23;;;;;;;3.15;2.88;;;;;;;12.05;100.00;101109.34;1000572;29;20065;-87
2023/08/09 00:56:54;;;;;;;3.47;3.17;;;;;;;12.10;100.00;101105.19;1007181;29;20051;-87
2023/08/09 00:57:26;;;;;;;7.10;3.50;;;;;;;12.05;100.00;101104.00;1011492;29;20123;-87
2023/08/09 00:58:16;;;;;;;4.93;3.55;;;;;;;11.94;100.00;101104.69;1006239;29;20101;-87
2023/08/09 00:58:47;;;;;;;7.35;3.63;;;;;;;11.91;100.00;101102.47;1006530;29;20472;-86
2023/08/09 00:59:19;;;;;;;4.40;3.03;;;;;;;11.89;100.00;101099.19;1006689;29;20056;-87
2023/08/09 00:59:50;;;;;;;3.75;3.10;;;;;;;11.89;100.00;101099.19;1008028;29;20056;-86
2023/08/09 01:00:22;;;;;;;4.95;4.18;;;;;;;11.87;100.00;101103.94;1003933;29;20056;-86
2023/08/09 01:00:54;;;;;;;3.67;2.95;;;;;;;11.75;100.00;101097.63;1005549;29;20077;-87
2023/08/09 01:01:27;;;;;;;3.90;3.50;;;;;;;11.84;100.00;101096.38;1012122;29;20053;-87
2023/08/09 01:02:00;;;;;;;6.32;3.67;;;;;;;11.97;100.00;101101.56;1015821;29;20039;-86
2023/08/09 01:02:32;;;;;;;3.45;3.15;;;;;;;11.88;100.00;101099.41;1007631;29;20052;-86
2023/08/09 01:03:04;;;;;;;4.40;3.75;;;;;;;11.89;100.00;101099.19;1001635;29;20540;-86
2023/08/09 01:03:36;;;;;;;4.53;3.47;;;;;;;11.92;100.00;101104.09;1011727;29;20085;-86
2023/08/09 01:04:08;;;;;;;6.43;3.67;;;;;;;11.85;100.00;101108.69;1011419;29;20649;-86
2023/08/09 01:04:40;;;;;;;3.70;3.35;;;;;;;11.79;100.00;101104.22;1004190;29;20680;-86
2023/08/09 01:05:13;;;;;;;4.65;3.95;;;;;;;11.93;100.00;101095.03;1002492;29;20042;-86
2023/08/09 01:05:51;;;;;;;4.43;4.03;;;;;;;11.85;100.00;101100.66;998852;29;20042;-86
2023/08/09 01:06:44;;;;;;;4.22;3.83;;;;;;;11.74;100.00;101101.31;1000267;29;20128;-86
2023/08/09 01:07:37;;;;;;;3.95;3.58;;;;;;;11.79;100.00;101090.88;1007409;29;20073;-87
2023/08/09 01:08:23;;;;;;;4.03;3.45;;;;;;;11.98;100.00;101095.19;999007;29;20042;-86
2023/08/09 01:09:03;;;;;;;9.57;3.97;;;;;;;11.82;100.00;101094.94;998540;29;20421;-86
2023/08/09 01:09:52;;;;;;;4.40;3.47;;;;;;;11.88;100.00;101096.75;1004074;29;20053;-86
2023/08/09 01:10:32;;;;;;;9.45;3.00;;;;;;;11.86;100.00;101096.16;1007594;29;20128;-87
2023/08/09 01:11:03;;;;;;;3.05;2.67;;;;;;;12.01;100.00;101102.78;1007860;29;20045;-86
2023/08/09 01:11:42;;;;;;;12.95;3.00;;;;;;;12.07;100.00;101101.09;1001547;29;20046;-86
2023/08/09 01:12:23;;;;;;;6.45;2.88;;;;;;;12.13;100.00;101100.22;1003703;29;20496;-87
2023/08/09 01:13:03;;;;;;;4.70;3.08;;;;;;;12.19;100.00;101102.00;1003371;29;20038;-87
2023/08/09 01:13:37;;;;;;;3.88;3.10;;;;;;;12.20;100.00;101105.50;1005540;29;20049;-87
2023/08/09 01:14:11;;;;;;;7.38;4.40;;;;;;;12.06;100.00;101102.13;1003825;29;20056;-87
2023/08/09 01:14:46;;;;;;;4.95;4.07;;;;;;;11.91;100.00;101102.47;999882;29;20189;-87
2023/08/09 01:15:19;;;;;;;44.55;4.72;;;;;;;11.66;100.00;101104.28;1003872;29;20045;-87
2023/08/09 01:15:51;;;;;;;3.47;3.17;;;;;;;11.86;100.00;101104.97;1001758;29;20056;-87
2023/08/09 01:16:25;;;;;;;9.40;3.72;;;;;;;11.68;100.00;101102.19;1007634;29;20049;-87
2023/08/09 01:16:57;;;;;;;34.05;4.15;;;;;;;11.54;100.00;101100.69;1005041;29;20041;-87
2023/08/09 01:17:29;;;;;;;12.52;2.58;;;;;;;11.39;100.00;101107.13;1007648;29;20101;-87
2023/08/09 01:18:03;;;;;;;10.98;3.03;;;;;;;11.30;100.00;101100.41;1007597;29;20037;-87
2023/08/09 01:18:36;;;;;;;20.13;2.72;;;;;;;11.19;100.00;101097.59;1006332;29;20042;-86
2023/08/09 01:19:11;;;;;;;11.00;2.90;;;;;;;11.13;100.00;101097.41;1001100;29;20041;-87
2023/08/09 01:19:51;;;;;;;18.02;2.88;;;;;;;11.19;100.00;101098.41;1003931;29;20052;-87
2023/08/09 01:20:23;;;;;;;29.55;2.78;;;;;;;11.11;100.00;101098.66;1011640;29;20040;-87
2023/08/09 01:20:54;;;;;;;24.58;2.85;;;;;;;11.16;100.00;101098.84;1011372;29;20506;-87
2023/08/09 01:21:28;;;;;;;6.03;2.92;;;;;;;11.22;100.00;101103.31;1004511;29;20045;-87
2023/08/09 01:22:05;;;;;;;18.00;3.10;;;;;;;11.13;100.00;101105.41;1005724;29;20045;-87
2023/08/09 01:22:41;;;;;;;4.68;3.08;;;;;;;11.27;100.00;101098.19;1001800;29;20311;-87
2023/08/09 01:23:18;;;;;;;3.72;3.42;;;;;;;11.39;100.00;101107.13;1005460;29;20727;-87
2023/08/09 01:23:50;;;;;;;29.00;3.20;;;;;;;11.17;100.00;101110.31;1007806;29;20174;-87
2023/08/09 01:24:22;;;;;;;8.45;4.32;;;;;;;11.23;100.00;101104.97;1015406;29;20052;-87
2023/08/09 01:24:57;;;;;;;19.75;3.65;;;;;;;11.11;100.00;101104.00;1007601;29;20112;-87
2023/08/09 01:25:30;;;;;;;19.92;3.08;;;;;;;11.24;100.00;101106.59;1003989;29;20496;-87
2023/08/09 01:26:04;;;;;;;9.57;3.80;;;;;;;11.15;100.00;101107.88;1003813;29;20050;-86
2023/08/09 01:26:39;;;;;;;44.90;3.80;;;;;;;11.02;100.00;101114.09;1007271;29;20404;-86
2023/08/09 01:27:11;;;;;;;7.00;3.10;;;;;;;11.07;100.00;101108.13;1006242;29;20788;-87
2023/08/09 01:27:42;;;;;;;62.88;5.30;;;;;;;10.89;100.00;101114.13;1011394;29;20313;-87
2023/08/09 01:28:16;;;;;;;13.02;3.53;;;;;;;10.97;100.00;101113.09;1007977;29;20041;-87
2023/08/09 01:28:48;;;;;;;8.68;3.72;;;;;;;10.98;100.00;101112.06;1011311;29;20176;-87
2023/08/09 01:29:20;;;;;;;36.65;3.60;;;;;;;10.89;100.00;101118.66;1007686;29;20310;-87
2023/08/09 01:29:52;;;;;;;23.90;4.35;;;;;;;10.99;100.00;101114.53;1007829;29;20041;-86
2023/08/09 01:30:24;;;;;;;68.70;4.72;;;;;;;10.94;100.00;101118.84;1000137;29;20299;-87
2023/08/09 01:30:57;;;;;;;20.55;3.90;;;;;;;11.00;100.00;101120.66;1000027;29;20046;-86
2023/08/09 01:31:29;;;;;;;9.38;3.55;;;;;;;10.90;100.00;101120.28;1003471;29;20049;-87
2023/08/09 01:32:00;;;;;;;48.53;4.60;;;;;;;10.92;100.00;101118.22;1007697;29;20569;-87
2023/08/09 01:32:32;;;;;;;28.90;2.90;;;;;;;10.94;100.00;101118.84;1002564;29;20313;-86
2023/08/09 01:33:04;;;;;;;3.35;2.60;;;;;;;11.11;100.00;101117.31;1002596;29;20316;-86
2023/08/09 01:33:35;;;;;;;29.73;4.15;;;;;;;10.99;100.00;101119.84;1009579;29;20410;-86
2023/08/09 01:34:07;;;;;;;4.78;4.00;;;;;;;11.10;100.00;101123.69;1003803;29;20044;-87
2023/08/09 01:34:39;;;;;;;29.90;3.83;;;;;;;11.07;100.00;101118.78;1007350;29;20181;-86
2023/08/09 01:35:11;;;;;;;35.17;4.07;;;;;;;10.93;100.00;101111.88;1007784;29;20353;-86
2023/08/09 01:35:57;;;;;;;7.60;2.85;;;;;;;11.22;100.00;101113.97;1010426;29;20300;-86
2023/08/09 01:36:33;;;;;;;3.80;3.40;;;;;;;11.25;100.00;101123.44;1005416;29;20655;-86
2023/08/09 01:37:10;;;;;;;12.75;3.63;;;;;;;11.07;100.00;101118.78;1002549;29;20053;-87
2023/08/09 01:37:48;;;;;;;4.05;3.38;;;;;;;11.15;100.00;101115.88;1007697;29;20313;-86
2023/08/09 01:38:24;;;;;;;4.25;3.50;;;;;;;11.12;100.00;101118.97;1005336;29;20800;-86
2023/08/09 01:39:02;;;;;;;3.25;2.92;;;;;;;11.27;100.00;101118.69;1006107;29;20318;-87
2023/08/09 01:39:34;;;;;;;4.55;3.88;;;;;;;11.31;100.00;101118.06;1004647;29;20538;-86
2023/08/09 01:40:10;;;;;;;30.70;3.60;;;;;;;11.24;100.00;101116.47;1003927;29;20298;-87
2023/08/09 01:40:41;;;;;;;11.13;3.13;;;;;;;11.27;100.00;101116.84;1007771;29;20337;-87
2023/08/09 01:41:13;;;;;;;13.73;3.40;;;;;;;11.26;100.00;101120.53;1007300;29;20305;-87
2023/08/09 01:41:47;;;;;;;4.25;3.85;;;;;;;11.28;100.00;101113.16;1007878;29;20309;-86
2023/08/09 01:42:19;;;;;;;3.15;2.75;;;;;;;11.46;100.00;101126.56;1002071;29;20339;-87
2023/08/09 01:42:52;;;;;;;8.00;4.15;;;;;;;11.25;100.00;101118.09;999879;29;20497;-86
2023/08/09 01:43:24;;;;;;;9.38;3.60;;;;;;;11.31;100.00;101120.72;1003778;29;20314;-87
2023/08/09 01:43:57;;;;;;;3.42;3.13;;;;;;;11.43;100.00;101123.50;1007538;29;20389;-86
2023/08/09 01:44:29;;;;;;;7.43;3.47;;;;;;;11.44;100.00;101122.47;996638;29;20774;-86
2023/08/09 01:45:02;;;;;;;8.82;3.38;;;;;;;11.49;100.00;101124.50;999867;29;20042;-87
2023/08/09 01:45:34;;;;;;;12.63;3.50;;;;;;;11.36;100.00;101115.56;1006988;29;20301;-86
2023/08/09 01:46:08;;;;;;;15.20;3.70;;;;;;;11.37;100.00;101127.03;1000220;29;20041;-86
2023/08/09 01:46:41;;;;;;;17.20;3.83;;;;;;;11.13;100.00;101115.25;1003696;29;20306;-86
2023/08/09 01:47:14;;;;;;;6.97;3.40;;;;;;;11.06;100.00;101125.16;1011078;29;20363;-86
2023/08/09 01:47:45;;;;;;;4.82;3.92;;;;;;;11.21;100.00;101116.84;1010355;29;20313;-87
2023/08/09 01:48:17;;;;;;;6.80;3.50;;;;;;;11.14;100.00;101127.56;1007553;29;20301;-86
2023/08/09 01:48:49;;;;;;;3.78;3.40;;;;;;;11.22;100.00;101123.81;1005797;29;20305;-86
2023/08/09 01:49:23;;;;;;;6.07;3.33;;;;;;;11.02;100.00;101124.75;1005549;29;20080;-86
2023/08/09 01:49:55;;;;;;;4.28;3.88;;;;;;;11.23;100.00;101123.63;1011209;29;20304;-86
2023/08/09 01:50:27;;;;;;;4.10;3.67;;;;;;;11.30;100.00;101127.06;1011027;29;20296;-86
2023/08/09 01:50:59;;;;;;;8.57;3.28;;;;;;;11.03;100.00;101122.91;1004086;29;20801;-87
2023/08/09 01:51:31;;;;;;;3.53;3.20;;;;;;;11.24;100.00;101122.59;1006255;29;20309;-86
2023/08/09 01:52:04;;;;;;;4.40;3.47;;;;;;;11.28;100.00;101121.16;1011718;29;20390;-86
2023/08/09 01:52:35;;;;;;;18.50;3.85;;;;;;;11.11;100.00;101128.00;1005197;29;20776;-86
2023/08/09 01:53:07;;;;;;;9.07;3.83;;;;;;;11.19;100.00;101126.91;1011355;29;20305;-86
2023/08/09 01:53:39;;;;;;;46.90;4.40;;;;;;;10.89;100.00;101126.66;1004009;29;20045;-87
2023/08/09 01:54:12;;;;;;;25.92;4.35;;;;;;;10.93;100.00;101131.34;999188;29;20315;-87
2023/08/09 01:54:43;;;;;;;5.43;3.75;;;;;;;11.04;100.00;101128.03;996169;29;20303;-86
2023/08/09 01:55:19;;;;;;;7.70;3.80;;;;;;;11.04;100.00;101135.22;1003618;29;20310;-86
2023/08/09 01:55:52;;;;;;;4.22;3.83;;;;;;;11.15;100.00;101124.69;999718;29;20581;-86
2023/08/09 01:56:24;;;;;;;5.18;4.68;;;;;;;11.24;100.00;101122.59;1002204;29;20506;-86
2023/08/09 01:56:56;;;;;;;4.68;4.28;;;;;;;11.07;100.00;101126.78;1003500;29;20463;-86
2023/08/09 01:57:27;;;;;;;17.38;5.35;;;;;;;10.93;100.00;101127.84;1008285;29;20396;-86
2023/08/09 01:58:00;;;;;;;12.13;3.65;;;;;;;10.93;100.00;101128.66;1011112;29;20699;-86
2023/08/09 01:58:32;;;;;;;18.05;4.20;;;;;;;10.89;100.00;101126.66;1001108;29;20429;-87
2023/08/09 01:59:05;;;;;;;5.13;4.25;;;;;;;10.86;100.00;101137.72;1004275;29;20826;-87
2023/08/09 01:59:38;;;;;;;6.53;4.32;;;;;;;11.02;100.00;101137.28;1001793;29;20849;-86
2023/08/09 02:00:10;;;;;;;3.83;3.53;;;;;;;11.19;100.00;101141.06;1003597;29;20393;-86
2023/08/09 02:00:43;;;;;;;8.32;3.95;;;;;;;11.04;100.00;101127.22;1002049;29;20331;-86
2023/08/09 02:01:15;;;;;;;16.17;4.45;;;;;;;10.83;100.00;101131.78;1007332;29;20308;-86
2023/08/09 02:01:46;;;;;;;32.70;4.72;;;;;;;10.79;100.00;101130.59;1003598;29;20321;-86
2023/08/09 02:02:20;;;;;;;59.15;6.53;;;;;;;10.77;100.00;101139.81;1006488;29;20317;-86
2023/08/09 02:02:52;;;;;;;30.98;4.30;;;;;;;10.71;100.00;101138.81;1001255;29;20310;-86
2023/08/09 02:03:26;;;;;;;37.42;4.60;;;;;;;10.74;100.00;101142.91;996441;29;20303;-87
2023/08/09 02:03:58;;;;;;;17.63;4.55;;;;;;;10.83;100.00;101139.78;1004350;29;20408;-86
2023/08/09 02:04:30;;;;;;;10.02;4.80;;;;;;;10.86;100.00;101135.88;1001801;29;20306;-87
2023/08/09 02:05:02;;;;;;;25.92;5.32;;;;;;;10.75;100.00;101142.69;1004458;29;20310;-87
2023/08/09 02:05:34;;;;;;;4.57;4.13;;;;;;;10.83;100.00;101141.63;1000410;29;20302;-87
2023/08/09 02:06:06;;;;;;;5.82;4.15;;;;;;;10.68;100.00;101133.91;1008527;29;20695;-87
2023/08/09 02:06:38;;;;;;;7.70;4.22;;;;;;;10.77;100.00;101143.31;1009784;29;20298;-86
2023/08/09 02:07:10;;;;;;;12.40;4.30;;;;;;;10.72;100.00;101137.78;999995;29;20334;-86
2023/08/09 02:07:41;;;;;;;10.55;4.75;;;;;;;10.71;100.00;101149.47;1004783;29;20710;-86
2023/08/09 02:08:14;;;;;;;18.08;4.93;;;;;;;10.71;100.00;101138.00;1004559;29;20910;-86
2023/08/09 02:08:48;;;;;;;62.40;5.72;;;;;;;10.61;100.00;101146.41;1004437;29;20306;-87
2023/08/09 02:09:20;;;;;;;19.00;4.82;;;;;;;10.68;100.00;101149.03;1005331;29;20304;-87
2023/08/09 02:09:52;;;;;;;52.40;5.90;;;;;;;10.66;100.00;101146.59;1004354;29;20693;-87
2023/08/09 02:10:23;;;;;;;81.70;7.05;;;;;;;10.66;100.00;101148.44;1008176;29;20568;-86
2023/08/09 02:10:57;;;;;;;11.40;3.60;;;;;;;10.76;100.00;101152.31;1008024;29;20331;-86
2023/08/09 02:11:28;;;;;;;7.15;5.20;;;;;;;10.73;100.00;101147.41;1004397;29;20822;-86
2023/08/09 02:12:00;;;;;;;38.53;6.05;;;;;;;10.63;100.00;101140.88;999204;29;20042;-86
2023/08/09 02:12:32;;;;;;;6.72;3.80;;;;;;;10.81;100.00;101149.84;996972;29;20311;-87
2023/08/09 02:13:03;;;;;;;4.30;3.85;;;;;;;10.69;100.00;101151.53;1004650;29;20301;-87
2023/08/09 02:13:35;;;;;;;20.73;4.10;;;;;;;10.62;100.00;101155.22;1006264;29;20302;-87
2023/08/09 02:14:07;;;;;;;8.27;4.47;;;;;;;10.66;100.00;101146.59;1004514;29;20306;-86
2023/08/09 02:14:40;;;;;;;9.55;3.97;;;;;;;10.63;100.00;101151.53;1004337;29;20878;-86
2023/08/09 02:15:11;;;;;;;18.00;5.18;;;;;;;10.78;100.00;101147.59;1007848;29;20313;-86
2023/08/09 02:15:43;;;;;;;12.23;5.40;;;;;;;10.83;100.00;101145.13;1003605;29;20675;-87
2023/08/09 02:16:19;;;;;;;6.13;4.28;;;;;;;10.82;100.00;101146.16;1004654;29;20302;-87
2023/08/09 02:16:51;;;;;;;6.00;4.57;;;;;;;10.84;100.00;101154.75;1011859;29;20834;-86
2023/08/09 02:17:22;;;;;;;7.63;5.43;;;;;;;10.86;100.00;101156.38;1008345;29;20816;-87
2023/08/09 02:17:57;;;;;;;5.55;4.55;;;;;;;11.05;100.00;101144.84;1004362;29;20672;-87
2023/08/09 02:18:29;;;;;;;8.48;6.22;;;;;;;11.03;100.00;101150.38;1008515;29;20301;-86
2023/08/09 02:19:01;;;;;;;6.50;5.22;;;;;;;11.26;100.00;101157.88;1000710;29;20391;-87
2023/08/09 02:19:33;;;;;;;7.32;6.28;;;;;;;11.32;100.00;101157.03;1000304;29;20341;-87
2023/08/09 02:20:06;;;;;;;11.38;7.32;;;;;;;11.19;100.00;101158.91;1001253;29;20892;-87
2023/08/09 02:20:38;;;;;;;8.45;6.82;;;;;;;11.35;100.00;101167.25;1008358;29;20846;-87
2023/08/09 02:21:10;;;;;;;9.65;6.45;;;;;;;11.41;100.00;101166.41;1011956;29;20360;-87
2023/08/09 02:21:42;;;;;;;7.95;6.60;;;;;;;11.56;100.00;101159.97;1006532;29;20364;-86
2023/08/09 02:22:16;;;;;;;9.00;6.35;;;;;;;11.64;100.00;101160.53;1007891;29;20336;-87
2023/08/09 02:22:48;;;;;;;9.02;6.45;;;;;;;11.69;100.00;101165.22;1007930;29;20302;-87
2023/08/09 02:23:20;;;;;;;11.07;6.38;;;;;;;11.69;100.00;101168.69;1012150;29;20819;-86
2023/08/09 02:23:52;;;;;;;8.43;6.88;;;;;;;11.77;100.00;101170.28;1012163;29;20317;-86
2023/08/09 02:24:24;;;;;;;6.90;6.18;;;;;;;11.62;100.00;101173.25;1002089;29;20306;-86
2023/08/09 02:24:56;;;;;;;10.00;7.07;;;;;;;11.74;100.00;101176.03;1008236;29;20349;-86
2023/08/09 02:25:27;;;;;;;8.57;7.53;;;;;;;11.85;100.00;101172.75;1004228;29;20103;-87
2023/08/09 02:25:59;;;;;;;11.27;7.18;;;;;;;11.87;100.00;101175.19;999597;29;20299;-86
2023/08/09 02:26:33;;;;;;;12.07;8.10;;;;;;;11.91;100.00;101177.19;1001831;29;20523;-86
2023/08/09 02:27:05;;;;;;;12.35;7.57;;;;;;;11.94;100.00;101176.75;1000461;29;20314;-87
2023/08/09 02:27:37;;;;;;;11.07;6.50;;;;;;;11.94;100.00;101173.28;998660;29;20091;-87
2023/08/09 02:28:09;;;;;;;9.05;7.50;;;;;;;11.94;100.00;101175.94;1003969;29;20049;-87
2023/08/09 02:28:40;;;;;;;8.98;7.55;;;;;;;11.87;100.00;101176.00;996788;29;20740;-87
2023/08/09 02:29:12;;;;;;;10.82;7.20;;;;;;;11.94;100.00;101168.75;1000812;29;20041;-86
2023/08/09 02:29:44;;;;;;;14.98;8.32;;;;;;;11.89;100.00;101179.28;1007056;29;20308;-86
2023/08/09 02:30:15;;;;;;;11.70;8.88;;;;;;;11.99;100.00;101176.94;1012057;29;20297;-87
2023/08/09 02:30:49;;;;;;;13.90;8.20;;;;;;;11.93;100.00;101174.31;1016063;29;20315;-87
2023/08/09 02:31:21;;;;;;;20.27;7.10;;;;;;;11.76;100.00;101173.97;1008453;29;20332;-87